Terminal Aerodrome Forecast
Issued by NWS

Home | Current Version | Previous Version | Text Only | Print | Product List | Glossary On
Versions: 1 2 3 4 5 6 7 8 9 10 11 12 13 14 15 16 17 18
000
FTUS46 KSEW 292351
TAFCLM
TAF
KCLM 292351Z 3000/3024 33005KT P6SM OVC060
     FM300300 29005KT P6SM -RA BKN035 OVC050
     FM300900 22003KT P6SM -SHRA BKN015 OVC030
     FM301500 VRB03KT P6SM BKN025 OVC040
     FM301900 33006KT P6SM BKN035 OVC060=

USA.gov is the U.S. government's official web portal to all federal, state and local government web resources and services.